Time;durP1;ratioP1;P1;durP2;ratioP2;P2;SDS_P1;SDS_P2;PMS_P1;PMS_P2;Temp;Humidity;BMP_temperature;BMP_pressure;BME280_temperature;BME280_humidity;BME280_pressure;Samples;Min_cycle;Max_cycle;Signal;HPM_P1;HPM_P2
2022/08/05 00:00:02;;;;;;;;;;;23.20;49.70;;;;;;478332;249;1107;-73
2022/08/05 00:02:03;;;;;;;;;;;23.20;49.70;;;;;;484080;246;1035;-74
2022/08/05 00:04:04;;;;;;;;;;;23.00;50.10;;;;;;470310;253;1207;-74
2022/08/05 00:06:05;;;;;;;;;;;23.00;50.20;;;;;;469833;253;1047;-73
2022/08/05 00:08:08;;;;;;;;;;;23.10;50.00;;;;;;478401;249;2183;-73
2022/08/05 00:10:08;;;;;;;;;;;23.20;49.80;;;;;;484133;246;1404;-73
2022/08/05 00:12:09;;;;;;;;;;;23.10;49.90;;;;;;470363;253;1171;-73
2022/08/05 00:14:11;;;;;;;;;;;23.00;50.40;;;;;;469994;253;1063;-73
2022/08/05 00:16:12;;;;;;;;;;;23.00;50.70;;;;;;478233;249;1011;-73
2022/08/05 00:18:13;;;;;;;;;;;23.10;50.90;;;;;;484117;246;1094;-73
2022/08/05 00:20:15;;;;;;;;;;;22.90;51.30;;;;;;470247;253;1295;-73
2022/08/05 00:22:16;;;;;;;;;;;22.90;51.60;;;;;;469819;249;1343;-73
2022/08/05 00:24:18;;;;;;;;;;;23.10;51.40;;;;;;478481;249;1041;-73
2022/08/05 00:26:19;;;;;;;;;;;23.00;51.50;;;;;;484099;246;1173;-73
2022/08/05 00:28:20;;;;;;;;;;;23.10;51.80;;;;;;470327;253;2187;-73
2022/08/05 00:30:22;;;;;;;;;;;23.10;51.80;;;;;;469774;253;993;-73
2022/08/05 00:32:23;;;;;;;;;;;23.10;51.90;;;;;;478345;249;1126;-74
2022/08/05 00:34:24;;;;;;;;;;;23.30;51.50;;;;;;484095;246;1062;-73
2022/08/05 00:36:25;;;;;;;;;;;23.40;50.90;;;;;;470291;253;1140;-73
2022/08/05 00:38:27;;;;;;;;;;;23.50;50.50;;;;;;469906;253;1111;-73
2022/08/05 00:40:28;;;;;;;;;;;23.50;50.40;;;;;;478301;249;1190;-73
2022/08/05 00:42:30;;;;;;;;;;;23.40;50.50;;;;;;484106;246;1087;-73
2022/08/05 00:44:31;;;;;;;;;;;23.40;50.30;;;;;;470274;253;1170;-73
2022/08/05 00:46:32;;;;;;;;;;;23.40;50.30;;;;;;469734;253;1243;-73
2022/08/05 00:48:34;;;;;;;;;;;23.40;50.00;;;;;;484083;246;2184;-73
2022/08/05 00:50:35;;;;;;;;;;;23.40;50.00;;;;;;470325;253;1309;-73
2022/08/05 00:52:36;;;;;;;;;;;23.30;50.10;;;;;;469842;253;1081;-74
2022/08/05 00:54:38;;;;;;;;;;;23.20;50.30;;;;;;484036;246;1232;-73
2022/08/05 00:56:39;;;;;;;;;;;23.00;50.80;;;;;;470240;253;1246;-73
2022/08/05 00:58:40;;;;;;;;;;;22.90;51.00;;;;;;469853;253;1064;-73
2022/08/05 01:00:42;;;;;;;;;;;22.90;51.00;;;;;;478326;249;1318;-73
2022/08/05 01:02:43;;;;;;;;;;;22.90;51.00;;;;;;484019;246;1120;-73
2022/08/05 01:04:44;;;;;;;;;;;22.90;50.80;;;;;;470226;245;1168;-73
2022/08/05 01:06:46;;;;;;;;;;;22.90;50.90;;;;;;469681;253;2220;-73
2022/08/05 01:08:47;;;;;;;;;;;22.90;50.70;;;;;;484054;246;1055;-73
2022/08/05 01:10:48;;;;;;;;;;;22.90;50.60;;;;;;470352;253;1147;-73
2022/08/05 01:12:50;;;;;;;;;;;22.80;51.00;;;;;;469872;253;1072;-73
2022/08/05 01:14:51;;;;;;;;;;;22.80;51.10;;;;;;478444;249;1163;-73
2022/08/05 01:16:52;;;;;;;;;;;22.80;51.20;;;;;;484030;246;1154;-73
2022/08/05 01:18:54;;;;;;;;;;;22.90;51.30;;;;;;470306;253;1199;-73
2022/08/05 01:20:55;;;;;;;;;;;23.00;51.00;;;;;;469788;254;1437;-73
2022/08/05 01:22:56;;;;;;;;;;;23.10;50.60;;;;;;484083;246;1074;-73
2022/08/05 01:24:58;;;;;;;;;;;23.30;50.30;;;;;;470301;245;1212;-73
2022/08/05 01:26:59;;;;;;;;;;;23.30;50.00;;;;;;469928;253;2160;-73
2022/08/05 01:29:00;;;;;;;;;;;23.40;49.70;;;;;;484149;246;982;-73
2022/08/05 01:31:02;;;;;;;;;;;23.40;49.70;;;;;;470323;254;1216;-73
2022/08/05 01:33:03;;;;;;;;;;;23.40;49.80;;;;;;469859;253;968;-73
2022/08/05 01:35:04;;;;;;;;;;;23.30;49.80;;;;;;478363;249;1050;-73
2022/08/05 01:37:06;;;;;;;;;;;23.30;49.70;;;;;;484060;246;1092;-73
2022/08/05 01:39:07;;;;;;;;;;;23.30;49.80;;;;;;470322;253;1239;-73
2022/08/05 01:41:08;;;;;;;;;;;23.30;49.70;;;;;;469783;253;1194;-73
2022/08/05 01:43:10;;;;;;;;;;;23.30;49.80;;;;;;483998;246;1252;-73
2022/08/05 01:45:11;;;;;;;;;;;23.30;49.70;;;;;;470338;253;1139;-73
2022/08/05 01:47:12;;;;;;;;;;;23.20;49.80;;;;;;469798;253;2167;-73
2022/08/05 01:49:14;;;;;;;;;;;23.20;49.90;;;;;;478302;249;1156;-73
2022/08/05 01:51:15;;;;;;;;;;;23.20;49.80;;;;;;484034;246;1180;-73
2022/08/05 01:53:18;;;;;;;;;;;23.20;49.80;;;;;;470277;253;1228;-73
2022/08/05 01:55:18;;;;;;;;;;;23.20;49.80;;;;;;469742;254;1407;-74
2022/08/05 01:57:19;;;;;;;;;;;23.20;49.90;;;;;;484062;246;1094;-74
2022/08/05 01:59:20;;;;;;;;;;;23.10;50.00;;;;;;470347;250;1179;-74
2022/08/05 02:01:22;;;;;;;;;;;23.10;49.80;;;;;;469855;253;995;-73
2022/08/05 02:03:23;;;;;;;;;;;23.10;50.00;;;;;;478330;249;1013;-73
2022/08/05 02:05:24;;;;;;;;;;;23.10;50.00;;;;;;484068;246;1036;-73
2022/08/05 02:07:26;;;;;;;;;;;23.10;50.30;;;;;;470214;253;2187;-73
2022/08/05 02:09:27;;;;;;;;;;;23.10;50.50;;;;;;469851;253;1102;-73
2022/08/05 02:11:28;;;;;;;;;;;23.20;50.70;;;;;;484081;246;1113;-73
2022/08/05 02:13:30;;;;;;;;;;;23.20;50.60;;;;;;470280;253;1232;-74
2022/08/05 02:15:31;;;;;;;;;;;23.30;50.70;;;;;;469774;253;1216;-73
2022/08/05 02:17:33;;;;;;;;;;;23.40;50.70;;;;;;478305;249;1303;-73
2022/08/05 02:19:34;;;;;;;;;;;23.40;50.60;;;;;;484059;246;1116;-73
2022/08/05 02:21:35;;;;;;;;;;;23.50;50.50;;;;;;470277;253;1148;-73
2022/08/05 02:23:37;;;;;;;;;;;23.60;50.50;;;;;;469733;253;1288;-73
2022/08/05 02:25:38;;;;;;;;;;;23.60;50.50;;;;;;478339;249;1203;-73
2022/08/05 02:27:40;;;;;;;;;;;23.60;50.40;;;;;;484113;246;2152;-73
2022/08/05 02:29:41;;;;;;;;;;;23.70;50.30;;;;;;470326;253;1014;-73
2022/08/05 02:31:42;;;;;;;;;;;23.60;50.20;;;;;;469693;253;1086;-73
2022/08/05 02:33:44;;;;;;;;;;;23.50;50.30;;;;;;478369;249;1084;-73
2022/08/05 02:35:45;;;;;;;;;;;23.50;50.40;;;;;;483998;246;1035;-73
2022/08/05 02:37:47;;;;;;;;;;;23.40;50.30;;;;;;470278;253;1124;-73
2022/08/05 02:39:48;;;;;;;;;;;23.30;50.40;;;;;;469831;253;1002;-73
2022/08/05 02:41:49;;;;;;;;;;;23.30;50.50;;;;;;478450;249;1112;-73
2022/08/05 02:43:51;;;;;;;;;;;23.30;50.50;;;;;;484073;246;1184;-74
2022/08/05 02:45:52;;;;;;;;;;;23.30;50.40;;;;;;470290;253;1085;-73
2022/08/05 02:47:54;;;;;;;;;;;23.20;50.30;;;;;;469876;253;2211;-73
2022/08/05 02:49:55;;;;;;;;;;;23.20;50.40;;;;;;484067;246;994;-73
2022/08/05 02:51:57;;;;;;;;;;;23.20;50.40;;;;;;470186;254;1060;-73
2022/08/05 02:53:58;;;;;;;;;;;23.10;50.30;;;;;;469645;253;1054;-73
2022/08/05 02:55:59;;;;;;;;;;;23.10;50.40;;;;;;484087;246;1451;-73
2022/08/05 02:58:01;;;;;;;;;;;23.10;50.40;;;;;;470310;253;1144;-73
2022/08/05 03:00:02;;;;;;;;;;;23.10;50.40;;;;;;469848;253;1087;-73
2022/08/05 03:02:03;;;;;;;;;;;23.10;50.40;;;;;;484108;246;1083;-73
2022/08/05 03:04:05;;;;;;;;;;;23.00;50.40;;;;;;470303;253;1017;-73
2022/08/05 03:06:06;;;;;;;;;;;23.00;50.40;;;;;;469721;253;1135;-73
2022/08/05 03:08:07;;;;;;;;;;;23.00;50.60;;;;;;478390;249;2198;-73
2022/08/05 03:10:09;;;;;;;;;;;22.90;50.80;;;;;;484077;246;1030;-73
2022/08/05 03:12:10;;;;;;;;;;;23.00;50.80;;;;;;470323;253;1104;-73
2022/08/05 03:14:11;;;;;;;;;;;23.00;50.90;;;;;;469868;253;1096;-73
2022/08/05 03:16:13;;;;;;;;;;;23.00;50.80;;;;;;484044;246;1113;-73
2022/08/05 03:18:14;;;;;;;;;;;23.00;50.70;;;;;;470200;254;1080;-73
2022/08/05 03:20:15;;;;;;;;;;;23.00;50.70;;;;;;469871;253;1022;-73
2022/08/05 03:22:17;;;;;;;;;;;23.00;50.80;;;;;;478309;249;1209;-73
2022/08/05 03:24:18;;;;;;;;;;;23.00;50.70;;;;;;483993;246;1124;-73
2022/08/05 03:26:19;;;;;;;;;;;23.00;50.70;;;;;;470316;253;1210;-73
2022/08/05 03:28:21;;;;;;;;;;;23.10;50.60;;;;;;469810;253;2164;-73
2022/08/05 03:30:22;;;;;;;;;;;23.00;50.60;;;;;;484059;246;1134;-73
2022/08/05 03:32:23;;;;;;;;;;;23.00;50.60;;;;;;470267;254;1455;-73
2022/08/05 03:34:25;;;;;;;;;;;23.00;50.70;;;;;;469778;253;1228;-73
2022/08/05 03:36:26;;;;;;;;;;;22.90;50.70;;;;;;484022;246;1248;-73
2022/08/05 03:38:27;;;;;;;;;;;22.90;50.80;;;;;;470247;253;1224;-73
2022/08/05 03:40:29;;;;;;;;;;;22.90;50.70;;;;;;469739;253;1200;-73
2022/08/05 03:42:30;;;;;;;;;;;22.80;50.70;;;;;;484082;246;1114;-73
2022/08/05 03:44:31;;;;;;;;;;;22.80;50.80;;;;;;470300;254;1217;-73
2022/08/05 03:46:33;;;;;;;;;;;22.80;50.80;;;;;;469848;253;1228;-73
2022/08/05 03:48:34;;;;;;;;;;;22.70;50.80;;;;;;484108;246;2129;-73
2022/08/05 03:50:35;;;;;;;;;;;22.70;50.90;;;;;;470279;253;1115;-73
2022/08/05 03:52:37;;;;;;;;;;;22.70;50.80;;;;;;469780;253;1173;-73
2022/08/05 03:54:38;;;;;;;;;;;22.70;50.80;;;;;;484147;246;1065;-73
2022/08/05 03:56:40;;;;;;;;;;;22.70;50.80;;;;;;470242;253;1199;-73
2022/08/05 03:58:41;;;;;;;;;;;22.70;50.80;;;;;;469780;253;1169;-73
2022/08/05 04:00:42;;;;;;;;;;;22.60;51.10;;;;;;478237;249;1200;-73
2022/08/05 04:02:44;;;;;;;;;;;22.60;51.40;;;;;;484058;246;1059;-73
2022/08/05 04:04:45;;;;;;;;;;;22.60;51.60;;;;;;470193;253;1070;-73
2022/08/05 04:06:46;;;;;;;;;;;22.70;51.60;;;;;;469728;253;1645;-73
2022/08/05 04:08:48;;;;;;;;;;;22.80;51.50;;;;;;478305;249;2179;-73
2022/08/05 04:10:49;;;;;;;;;;;22.90;51.60;;;;;;483943;246;1553;-73
2022/08/05 04:12:50;;;;;;;;;;;22.90;51.60;;;;;;470259;253;1077;-73
2022/08/05 04:14:52;;;;;;;;;;;22.90;51.60;;;;;;469809;253;1229;-73
2022/08/05 04:16:53;;;;;;;;;;;23.00;51.50;;;;;;478240;249;1078;-73
2022/08/05 04:18:54;;;;;;;;;;;23.00;51.40;;;;;;484043;246;1328;-73
2022/08/05 04:20:56;;;;;;;;;;;23.10;51.40;;;;;;470369;253;1145;-73
2022/08/05 04:22:57;;;;;;;;;;;23.10;51.30;;;;;;469749;253;1193;-73
2022/08/05 04:24:58;;;;;;;;;;;23.10;51.20;;;;;;484039;246;1061;-73
2022/08/05 04:27:00;;;;;;;;;;;23.00;51.20;;;;;;470095;253;1270;-73
2022/08/05 04:29:01;;;;;;;;;;;23.10;51.10;;;;;;469642;253;2207;-73
2022/08/05 04:31:02;;;;;;;;;;;23.00;51.10;;;;;;478111;249;1135;-73
2022/08/05 04:33:04;;;;;;;;;;;22.90;51.20;;;;;;483914;246;1118;-73
2022/08/05 04:35:05;;;;;;;;;;;22.90;51.20;;;;;;470120;253;1070;-73
2022/08/05 04:37:06;;;;;;;;;;;22.80;51.40;;;;;;469580;253;1288;-73
2022/08/05 04:39:08;;;;;;;;;;;22.80;51.20;;;;;;478181;249;1261;-73
2022/08/05 04:41:09;;;;;;;;;;;22.90;51.20;;;;;;483910;246;1083;-73
2022/08/05 04:43:10;;;;;;;;;;;22.90;51.00;;;;;;478164;249;1060;-73
2022/08/05 04:45:12;;;;;;;;;;;22.90;51.00;;;;;;483885;246;1176;-73
2022/08/05 04:47:13;;;;;;;;;;;22.80;51.00;;;;;;470188;253;1105;-73
2022/08/05 04:49:14;;;;;;;;;;;22.80;51.10;;;;;;469671;253;2143;-73
2022/08/05 04:51:16;;;;;;;;;;;22.70;51.40;;;;;;478196;249;1131;-73
2022/08/05 04:53:17;;;;;;;;;;;22.60;51.50;;;;;;483866;246;1212;-73
2022/08/05 04:55:19;;;;;;;;;;;22.60;51.40;;;;;;469997;253;1229;-73
2022/08/05 04:57:20;;;;;;;;;;;22.60;51.30;;;;;;469544;253;1092;-73
2022/08/05 04:59:21;;;;;;;;;;;22.70;51.10;;;;;;478096;249;1180;-73
2022/08/05 05:01:23;;;;;;;;;;;22.70;51.20;;;;;;483876;246;1263;-73
2022/08/05 05:03:24;;;;;;;;;;;22.70;51.30;;;;;;470113;253;1157;-73
2022/08/05 05:05:25;;;;;;;;;;;22.70;51.20;;;;;;469549;253;1214;-73
2022/08/05 05:07:27;;;;;;;;;;;22.60;51.40;;;;;;477975;249;1242;-73
2022/08/05 05:09:28;;;;;;;;;;;22.70;51.50;;;;;;483702;246;2141;-73
2022/08/05 05:11:29;;;;;;;;;;;22.70;51.70;;;;;;470067;253;1093;-73
2022/08/05 05:13:31;;;;;;;;;;;22.70;51.90;;;;;;469575;253;1118;-73
2022/08/05 05:15:33;;;;;;;;;;;22.80;51.80;;;;;;478116;249;1191;-73
2022/08/05 05:17:34;;;;;;;;;;;22.90;51.90;;;;;;483878;246;1120;-73
2022/08/05 05:19:35;;;;;;;;;;;23.00;51.90;;;;;;470134;253;1046;-73
2022/08/05 05:21:37;;;;;;;;;;;23.00;51.90;;;;;;469620;253;1235;-73
2022/08/05 05:23:38;;;;;;;;;;;23.00;52.10;;;;;;483863;246;1027;-73
2022/08/05 05:25:39;;;;;;;;;;;23.00;52.20;;;;;;470138;253;1172;-73
2022/08/05 05:27:41;;;;;;;;;;;23.00;52.20;;;;;;469587;253;1078;-73
2022/08/05 05:29:42;;;;;;;;;;;23.20;51.80;;;;;;478130;249;2230;-73
2022/08/05 05:31:43;;;;;;;;;;;23.30;51.60;;;;;;483823;246;1203;-73
2022/08/05 05:33:45;;;;;;;;;;;23.20;51.40;;;;;;470038;253;1046;-73
2022/08/05 05:35:46;;;;;;;;;;;23.20;51.40;;;;;;469587;253;1042;-73
2022/08/05 05:37:47;;;;;;;;;;;23.10;51.50;;;;;;478097;249;1086;-73
2022/08/05 05:39:49;;;;;;;;;;;23.10;51.40;;;;;;483917;246;1059;-73
2022/08/05 05:41:50;;;;;;;;;;;23.10;51.30;;;;;;470086;253;1390;-73
2022/08/05 05:43:51;;;;;;;;;;;23.10;51.30;;;;;;469571;253;1182;-73
2022/08/05 05:45:53;;;;;;;;;;;23.10;51.20;;;;;;478006;249;1261;-73
2022/08/05 05:47:54;;;;;;;;;;;23.10;51.20;;;;;;483669;246;1161;-73
2022/08/05 05:49:55;;;;;;;;;;;23.10;51.20;;;;;;469859;253;2203;-73
2022/08/05 05:51:57;;;;;;;;;;;22.90;51.20;;;;;;469417;253;1176;-73
2022/08/05 05:53:58;;;;;;;;;;;22.90;51.20;;;;;;477941;249;1114;-73
2022/08/05 05:55:59;;;;;;;;;;;22.80;51.30;;;;;;483766;246;1158;-73
2022/08/05 05:58:01;;;;;;;;;;;22.70;51.40;;;;;;470032;250;1177;-73
2022/08/05 06:00:02;;;;;;;;;;;22.80;51.40;;;;;;469519;253;1471;-73
2022/08/05 06:02:03;;;;;;;;;;;22.70;51.40;;;;;;478089;249;1184;-73
2022/08/05 06:04:05;;;;;;;;;;;22.80;51.30;;;;;;483830;246;1096;-73
2022/08/05 06:06:06;;;;;;;;;;;22.70;51.40;;;;;;469956;253;1065;-73
2022/08/05 06:08:09;;;;;;;;;;;22.70;51.50;;;;;;469521;253;1076;-73
2022/08/05 06:10:09;;;;;;;;;;;22.70;51.70;;;;;;483686;246;2192;-73
2022/08/05 06:12:10;;;;;;;;;;;22.70;51.90;;;;;;469841;245;1227;-73
2022/08/05 06:14:11;;;;;;;;;;;22.80;51.90;;;;;;469386;253;1040;-73
2022/08/05 06:16:13;;;;;;;;;;;22.80;51.50;;;;;;477936;249;1173;-73
2022/08/05 06:18:14;;;;;;;;;;;22.90;51.40;;;;;;483602;246;1349;-73
2022/08/05 06:20:15;;;;;;;;;;;23.00;51.20;;;;;;469823;253;1187;-73
2022/08/05 06:22:17;;;;;;;;;;;23.00;51.20;;;;;;469461;253;1132;-73
2022/08/05 06:24:18;;;;;;;;;;;23.00;51.10;;;;;;478102;249;1039;-73
2022/08/05 06:26:20;;;;;;;;;;;23.00;51.20;;;;;;483755;246;1269;-73
2022/08/05 06:28:21;;;;;;;;;;;22.90;51.10;;;;;;470028;253;1081;-73
2022/08/05 06:30:25;;;;;;;;;;;22.90;51.20;;;;;;469354;253;2206;-73
2022/08/05 06:32:24;;;;;;;;;;;22.90;51.00;;;;;;483459;246;1383;-73
2022/08/05 06:34:25;;;;;;;;;;;22.90;51.10;;;;;;469880;254;1277;-74
2022/08/05 06:36:27;;;;;;;;;;;23.00;51.10;;;;;;469352;253;1190;-74
2022/08/05 06:38:28;;;;;;;;;;;23.00;51.00;;;;;;483607;246;1095;-74
2022/08/05 06:40:29;;;;;;;;;;;22.90;51.00;;;;;;469774;253;1270;-73
2022/08/05 06:42:30;;;;;;;;;;;23.00;50.80;;;;;;469305;253;1102;-73
2022/08/05 06:44:32;;;;;;;;;;;23.00;50.80;;;;;;477903;249;1048;-73
2022/08/05 06:46:33;;;;;;;;;;;22.90;51.00;;;;;;483574;246;1318;-73
2022/08/05 06:48:34;;;;;;;;;;;22.90;51.00;;;;;;469766;253;1118;-73
2022/08/05 06:50:36;;;;;;;;;;;23.00;50.90;;;;;;469199;253;2200;-73
2022/08/05 06:52:37;;;;;;;;;;;23.00;51.00;;;;;;483525;246;1125;-73
2022/08/05 06:54:38;;;;;;;;;;;23.00;50.80;;;;;;469654;254;977;-73
2022/08/05 06:56:40;;;;;;;;;;;23.00;50.90;;;;;;469313;253;1145;-73
2022/08/05 06:58:41;;;;;;;;;;;23.00;50.90;;;;;;477842;249;1022;-74
2022/08/05 07:00:42;;;;;;;;;;;23.00;50.80;;;;;;483214;246;1203;-74
2022/08/05 07:02:44;;;;;;;;;;;23.00;50.90;;;;;;469732;253;1268;-74
2022/08/05 07:04:45;;;;;;;;;;;23.00;50.90;;;;;;469255;253;1302;-73
2022/08/05 07:06:46;;;;;;;;;;;23.00;50.90;;;;;;484376;246;1280;-73
2022/08/05 07:08:48;;;;;;;;;;;22.90;51.00;;;;;;469591;254;1127;-73
2022/08/05 07:10:49;;;;;;;;;;;23.00;51.00;;;;;;469218;253;2195;-73
2022/08/05 07:17:29;;;;;;;;;;;23.00;51.00;;;;;;477437;249;1110;-74
2022/08/05 07:19:30;;;;;;;;;;;23.10;50.80;;;;;;469546;253;1150;-74
2022/08/05 07:21:32;;;;;;;;;;;23.00;50.90;;;;;;483496;246;1340;-73
2022/08/05 07:23:33;;;;;;;;;;;23.00;50.80;;;;;;469568;253;1204;-74
2022/08/05 07:25:34;;;;;;;;;;;23.10;50.70;;;;;;469142;253;1104;-74
2022/08/05 07:27:36;;;;;;;;;;;23.00;50.80;;;;;;477547;249;1149;-73
2022/08/05 07:29:38;;;;;;;;;;;23.10;50.70;;;;;;483228;246;2200;-73
2022/08/05 07:31:38;;;;;;;;;;;23.00;50.70;;;;;;469619;253;1285;-74
2022/08/05 07:33:40;;;;;;;;;;;23.10;50.70;;;;;;469231;253;1128;-73
2022/08/05 07:35:41;;;;;;;;;;;23.10;50.80;;;;;;483355;246;1251;-73
2022/08/05 07:37:42;;;;;;;;;;;23.10;50.80;;;;;;469423;253;1230;-73
2022/08/05 07:39:44;;;;;;;;;;;23.10;50.70;;;;;;468890;253;1113;-73
2022/08/05 07:41:45;;;;;;;;;;;23.10;50.60;;;;;;477595;249;1203;-73
2022/08/05 07:43:46;;;;;;;;;;;23.20;50.40;;;;;;483293;246;1053;-73
2022/08/05 07:45:48;;;;;;;;;;;23.10;50.40;;;;;;469524;253;1253;-73
2022/08/05 07:47:49;;;;;;;;;;;23.00;50.60;;;;;;468996;253;1095;-73
2022/08/05 07:49:51;;;;;;;;;;;23.00;50.70;;;;;;483125;246;2232;-73
2022/08/05 07:51:52;;;;;;;;;;;23.00;50.60;;;;;;469535;253;1217;-73
2022/08/05 07:53:53;;;;;;;;;;;23.10;50.60;;;;;;469043;253;1198;-73
2022/08/05 07:55:55;;;;;;;;;;;23.10;50.60;;;;;;477606;249;1312;-73
2022/08/05 07:57:56;;;;;;;;;;;23.10;50.60;;;;;;483406;246;1116;-73
2022/08/05 07:59:57;;;;;;;;;;;23.20;50.50;;;;;;469577;253;1214;-73
2022/08/05 08:02:00;;;;;;;;;;;23.10;50.40;;;;;;468784;253;1248;-73
2022/08/05 08:04:00;;;;;;;;;;;23.10;50.40;;;;;;483032;246;1215;-73
2022/08/05 08:06:01;;;;;;;;;;;23.10;50.40;;;;;;469571;253;1305;-73
2022/08/05 08:08:03;;;;;;;;;;;23.10;50.40;;;;;;469184;253;1170;-73
2022/08/05 08:10:04;;;;;;;;;;;23.10;50.60;;;;;;477708;249;2188;-73
2022/08/05 08:12:05;;;;;;;;;;;23.10;50.50;;;;;;483404;246;1170;-73
2022/08/05 08:14:07;;;;;;;;;;;23.10;50.60;;;;;;469633;253;1122;-74
2022/08/05 08:16:08;;;;;;;;;;;23.10;50.50;;;;;;469170;253;1201;-73
2022/08/05 08:18:09;;;;;;;;;;;23.10;50.40;;;;;;477682;249;1059;-73
2022/08/05 08:20:11;;;;;;;;;;;23.10;50.50;;;;;;482652;246;997;-73
2022/08/05 08:22:12;;;;;;;;;;;23.10;50.50;;;;;;469598;249;1289;-73
2022/08/05 08:24:13;;;;;;;;;;;23.20;50.50;;;;;;469103;253;1071;-73
2022/08/05 08:26:15;;;;;;;;;;;23.20;50.40;;;;;;477569;249;1182;-73
2022/08/05 08:28:16;;;;;;;;;;;23.20;50.30;;;;;;483482;246;1206;-74
2022/08/05 08:30:17;;;;;;;;;;;23.20;50.40;;;;;;469645;253;2144;-73
2022/08/05 08:32:19;;;;;;;;;;;23.20;50.40;;;;;;469129;250;1215;-73
2022/08/05 08:34:20;;;;;;;;;;;23.20;50.40;;;;;;477571;249;1097;-73
2022/08/05 08:36:21;;;;;;;;;;;23.20;50.50;;;;;;483340;246;1162;-73
2022/08/05 08:38:23;;;;;;;;;;;23.20;50.50;;;;;;469561;253;1159;-73
2022/08/05 08:40:24;;;;;;;;;;;23.20;50.40;;;;;;469165;253;1151;-73
2022/08/05 08:42:25;;;;;;;;;;;23.20;50.40;;;;;;477383;249;1102;-73
2022/08/05 08:44:27;;;;;;;;;;;23.20;50.40;;;;;;483472;246;1051;-73
2022/08/05 08:46:29;;;;;;;;;;;23.20;50.50;;;;;;469652;253;1111;-73
2022/08/05 08:48:30;;;;;;;;;;;23.20;50.60;;;;;;469144;253;1210;-73
2022/08/05 08:50:32;;;;;;;;;;;23.30;50.40;;;;;;483328;246;2203;-73
2022/08/05 08:52:33;;;;;;;;;;;23.30;50.20;;;;;;469745;253;1311;-73
2022/08/05 08:54:34;;;;;;;;;;;23.30;50.30;;;;;;469249;253;1295;-73
2022/08/05 08:56:35;;;;;;;;;;;23.20;50.30;;;;;;483280;246;1107;-73
2022/08/05 08:58:37;;;;;;;;;;;23.30;50.40;;;;;;469489;253;1141;-74
2022/08/05 09:00:38;;;;;;;;;;;23.30;50.30;;;;;;469015;253;1171;-74
2022/08/05 09:02:39;;;;;;;;;;;23.20;50.40;;;;;;477504;249;1132;-75
2022/08/05 09:04:40;;;;;;;;;;;23.10;50.40;;;;;;483188;246;1090;-74
2022/08/05 09:06:42;;;;;;;;;;;23.10;50.90;;;;;;469597;253;1180;-74
2022/08/05 09:08:43;;;;;;;;;;;22.90;51.10;;;;;;469091;253;1089;-74
2022/08/05 09:10:45;;;;;;;;;;;22.90;51.20;;;;;;483256;246;2192;-75
2022/08/05 09:12:46;;;;;;;;;;;22.90;51.20;;;;;;469691;254;1433;-75
2022/08/05 09:14:47;;;;;;;;;;;22.90;51.40;;;;;;469371;253;1162;-75
2022/08/05 09:16:48;;;;;;;;;;;22.90;51.30;;;;;;483449;246;1146;-75
2022/08/05 09:18:50;;;;;;;;;;;22.90;51.10;;;;;;469605;254;1131;-75
2022/08/05 09:20:51;;;;;;;;;;;23.00;50.90;;;;;;469148;253;1093;-75
2022/08/05 09:22:52;;;;;;;;;;;23.10;50.80;;;;;;477685;249;1069;-75
2022/08/05 09:24:54;;;;;;;;;;;23.20;50.60;;;;;;483335;246;1291;-75
2022/08/05 09:26:55;;;;;;;;;;;23.20;50.60;;;;;;469703;253;1169;-75
2022/08/05 09:28:57;;;;;;;;;;;23.20;50.40;;;;;;469223;253;1078;-75
2022/08/05 09:30:59;;;;;;;;;;;23.10;50.50;;;;;;477667;249;2139;-75
2022/08/05 09:32:59;;;;;;;;;;;23.10;50.60;;;;;;483552;246;1216;-75
2022/08/05 09:35:01;;;;;;;;;;;23.10;50.70;;;;;;469614;253;1109;-75
2022/08/05 09:37:02;;;;;;;;;;;23.10;50.60;;;;;;469171;253;1306;-75
2022/08/05 09:39:03;;;;;;;;;;;23.00;51.00;;;;;;483459;246;1096;-75
2022/08/05 09:41:05;;;;;;;;;;;23.00;50.90;;;;;;469734;254;1150;-75
2022/08/05 09:43:06;;;;;;;;;;;23.00;51.00;;;;;;469023;253;1150;-75
2022/08/05 09:45:08;;;;;;;;;;;23.00;50.90;;;;;;483177;246;1074;-75
2022/08/05 09:47:09;;;;;;;;;;;23.00;50.80;;;;;;469606;253;1233;-75
2022/08/05 09:49:10;;;;;;;;;;;23.00;50.90;;;;;;468978;253;1208;-75
2022/08/05 09:51:12;;;;;;;;;;;23.00;50.70;;;;;;477582;249;2199;-75
2022/08/05 09:53:13;;;;;;;;;;;22.90;51.00;;;;;;483443;246;1156;-74
2022/08/05 09:55:14;;;;;;;;;;;22.90;50.80;;;;;;469811;253;1159;-75
2022/08/05 09:57:16;;;;;;;;;;;22.90;50.80;;;;;;469240;253;1101;-75
2022/08/05 09:59:17;;;;;;;;;;;23.00;51.00;;;;;;477754;249;1142;-75
2022/08/05 10:01:19;;;;;;;;;;;22.90;50.90;;;;;;483409;246;1208;-75
2022/08/05 10:03:20;;;;;;;;;;;23.00;51.00;;;;;;477846;249;1149;-75
2022/08/05 10:05:21;;;;;;;;;;;23.00;50.80;;;;;;483401;246;1076;-75
2022/08/05 10:07:22;;;;;;;;;;;23.00;50.90;;;;;;469545;253;1022;-75
2022/08/05 10:09:24;;;;;;;;;;;22.80;51.10;;;;;;469114;253;1022;-75
2022/08/05 10:11:25;;;;;;;;;;;22.80;51.10;;;;;;483518;246;2176;-75
2022/08/05 10:13:27;;;;;;;;;;;22.90;50.80;;;;;;469744;253;1040;-75
2022/08/05 10:15:28;;;;;;;;;;;22.90;50.90;;;;;;469313;253;1010;-75
2022/08/05 10:17:29;;;;;;;;;;;22.70;51.20;;;;;;483480;246;1147;-74
2022/08/05 10:19:30;;;;;;;;;;;22.80;51.20;;;;;;469525;253;1117;-75
2022/08/05 10:21:32;;;;;;;;;;;22.80;51.00;;;;;;469157;253;1326;-75
2022/08/05 10:23:33;;;;;;;;;;;22.80;51.20;;;;;;483325;246;1102;-75
2022/08/05 10:25:35;;;;;;;;;;;22.80;51.10;;;;;;469612;253;1097;-75
2022/08/05 10:27:38;;;;;;;;;;;22.70;51.20;;;;;;469312;253;1121;-75
2022/08/05 10:29:37;;;;;;;;;;;22.90;51.10;;;;;;483516;246;1240;-75
2022/08/05 10:31:39;;;;;;;;;;;22.80;51.10;;;;;;477756;249;2194;-75
2022/08/05 10:33:40;;;;;;;;;;;22.70;51.40;;;;;;483478;246;1187;-74
2022/08/05 10:35:42;;;;;;;;;;;22.70;51.30;;;;;;469652;253;1137;-74
2022/08/05 10:37:43;;;;;;;;;;;22.80;51.30;;;;;;469131;253;1146;-74
2022/08/05 10:39:45;;;;;;;;;;;22.90;51.10;;;;;;477652;249;1008;-74
2022/08/05 10:41:46;;;;;;;;;;;22.90;51.00;;;;;;483488;246;1046;-74
2022/08/05 10:43:47;;;;;;;;;;;22.90;50.90;;;;;;469711;253;988;-75
2022/08/05 10:45:49;;;;;;;;;;;22.90;50.90;;;;;;469291;253;1054;-74
2022/08/05 10:47:50;;;;;;;;;;;22.90;51.00;;;;;;483357;246;1241;-74
2022/08/05 10:49:51;;;;;;;;;;;22.90;50.80;;;;;;469571;253;1068;-74
2022/08/05 10:51:56;;;;;;;;;;;22.90;51.00;;;;;;469366;253;2196;-75
2022/08/05 10:53:54;;;;;;;;;;;23.00;50.90;;;;;;477543;249;1380;-75
2022/08/05 10:55:55;;;;;;;;;;;22.90;50.90;;;;;;483531;246;1062;-75
2022/08/05 10:57:57;;;;;;;;;;;22.90;51.00;;;;;;469619;253;1056;-75
2022/08/05 10:59:58;;;;;;;;;;;22.90;51.00;;;;;;469083;253;1221;-75
2022/08/05 11:01:59;;;;;;;;;;;22.80;51.10;;;;;;477868;249;1231;-75
2022/08/05 11:04:01;;;;;;;;;;;22.80;51.30;;;;;;483570;246;1254;-75
2022/08/05 11:06:02;;;;;;;;;;;23.00;50.80;;;;;;469781;253;1229;-74
2022/08/05 11:08:03;;;;;;;;;;;23.00;50.80;;;;;;469162;253;1262;-75
2022/08/05 11:10:05;;;;;;;;;;;22.90;50.90;;;;;;477775;249;1149;-75
2022/08/05 11:12:06;;;;;;;;;;;22.90;51.10;;;;;;483330;246;2176;-74
2022/08/05 11:14:07;;;;;;;;;;;22.80;51.20;;;;;;469417;253;1132;-75
2022/08/05 11:16:09;;;;;;;;;;;23.00;51.00;;;;;;469106;253;1568;-75
2022/08/05 11:18:10;;;;;;;;;;;23.20;50.30;;;;;;477768;249;1131;-74
2022/08/05 11:20:11;;;;;;;;;;;23.20;50.30;;;;;;483281;246;1211;-74
2022/08/05 11:22:13;;;;;;;;;;;23.10;50.50;;;;;;469748;253;1087;-74
2022/08/05 11:24:14;;;;;;;;;;;23.00;50.70;;;;;;469246;253;1153;-75
2022/08/05 11:26:16;;;;;;;;;;;23.00;50.80;;;;;;477719;249;1159;-75
2022/08/05 11:28:17;;;;;;;;;;;23.30;50.40;;;;;;483398;246;1198;-75
2022/08/05 11:30:18;;;;;;;;;;;23.60;49.60;;;;;;469572;253;1190;-75
2022/08/05 11:32:19;;;;;;;;;;;23.70;49.30;;;;;;469201;253;2128;-74
2022/08/05 11:34:21;;;;;;;;;;;23.70;49.30;;;;;;477784;249;1208;-74
2022/08/05 11:36:22;;;;;;;;;;;23.70;49.40;;;;;;483487;246;1118;-74
2022/08/05 11:38:23;;;;;;;;;;;23.80;50.50;;;;;;469746;253;1131;-75
2022/08/05 11:40:25;;;;;;;;;;;24.00;50.60;;;;;;469240;253;1238;-74
2022/08/05 11:42:26;;;;;;;;;;;23.90;51.10;;;;;;477727;249;1153;-74
2022/08/05 11:44:28;;;;;;;;;;;23.70;51.70;;;;;;483532;246;1101;-75
2022/08/05 11:46:29;;;;;;;;;;;23.70;51.80;;;;;;469590;249;1403;-74
2022/08/05 11:48:30;;;;;;;;;;;23.80;51.60;;;;;;469283;253;1136;-74
2022/08/05 11:50:31;;;;;;;;;;;23.80;51.60;;;;;;483392;246;2239;-74
2022/08/05 11:52:33;;;;;;;;;;;23.60;51.90;;;;;;469742;254;1054;-74
2022/08/05 11:54:36;;;;;;;;;;;23.70;51.90;;;;;;469131;253;1220;-74
2022/08/05 11:56:35;;;;;;;;;;;23.80;51.70;;;;;;483333;246;1454;-74
2022/08/05 11:58:38;;;;;;;;;;;23.80;51.60;;;;;;469700;254;1192;-75
2022/08/05 12:00:38;;;;;;;;;;;23.80;51.50;;;;;;469183;253;1393;-74